sensor_id;sensor_type;location;lat;lon;timestamp;P1;durP1;ratioP1;P2;durP2;ratioP2
76599;SDS011;65489;52.048;6.090;2023-02-03T00:01:03;1.40;;;0.55;;
76599;SDS011;65489;52.048;6.090;2023-02-03T00:03:29;1.65;;;0.75;;
76599;SDS011;65489;52.048;6.090;2023-02-03T00:05:54;1.38;;;0.77;;
76599;SDS011;65489;52.048;6.090;2023-02-03T00:08:20;1.40;;;0.70;;
76599;SDS011;65489;52.048;6.090;2023-02-03T00:10:46;1.33;;;0.70;;
76599;SDS011;65489;52.048;6.090;2023-02-03T00:13:12;1.70;;;0.80;;
76599;SDS011;65489;52.048;6.090;2023-02-03T00:15:38;1.90;;;0.70;;
76599;SDS011;65489;52.048;6.090;2023-02-03T00:18:03;1.50;;;0.80;;
76599;SDS011;65489;52.048;6.090;2023-02-03T00:20:29;1.40;;;0.75;;
76599;SDS011;65489;52.048;6.090;2023-02-03T00:23:01;1.17;;;0.55;;
76599;SDS011;65489;52.048;6.090;2023-02-03T00:25:27;2.17;;;0.82;;
76599;SDS011;65489;52.048;6.090;2023-02-03T00:27:53;2.30;;;0.88;;
76599;SDS011;65489;52.048;6.090;2023-02-03T00:30:18;1.05;;;0.55;;
76599;SDS011;65489;52.048;6.090;2023-02-03T00:32:44;1.52;;;0.55;;
76599;SDS011;65489;52.048;6.090;2023-02-03T00:35:10;1.25;;;0.65;;
76599;SDS011;65489;52.048;6.090;2023-02-03T00:37:35;2.25;;;0.70;;
76599;SDS011;65489;52.048;6.090;2023-02-03T00:40:01;1.15;;;0.65;;
76599;SDS011;65489;52.048;6.090;2023-02-03T00:42:26;1.42;;;0.68;;
76599;SDS011;65489;52.048;6.090;2023-02-03T00:44:52;2.22;;;0.70;;
76599;SDS011;65489;52.048;6.090;2023-02-03T00:47:17;2.17;;;0.70;;
76599;SDS011;65489;52.048;6.090;2023-02-03T00:49:42;1.35;;;0.60;;
76599;SDS011;65489;52.048;6.090;2023-02-03T00:52:08;1.27;;;0.60;;
76599;SDS011;65489;52.048;6.090;2023-02-03T00:54:34;1.83;;;0.63;;
76599;SDS011;65489;52.048;6.090;2023-02-03T00:56:59;1.63;;;0.68;;
76599;SDS011;65489;52.048;6.090;2023-02-03T00:59:24;0.93;;;0.40;;
76599;SDS011;65489;52.048;6.090;2023-02-03T01:01:50;1.02;;;0.60;;
76599;SDS011;65489;52.048;6.090;2023-02-03T01:04:15;1.80;;;0.65;;
76599;SDS011;65489;52.048;6.090;2023-02-03T01:06:41;1.80;;;0.60;;
76599;SDS011;65489;52.048;6.090;2023-02-03T01:09:06;1.85;;;0.80;;
76599;SDS011;65489;52.048;6.090;2023-02-03T01:11:32;1.73;;;0.60;;
76599;SDS011;65489;52.048;6.090;2023-02-03T01:13:57;1.40;;;0.40;;
76599;SDS011;65489;52.048;6.090;2023-02-03T01:16:27;1.40;;;0.57;;
76599;SDS011;65489;52.048;6.090;2023-02-03T01:18:54;2.03;;;0.85;;
76599;SDS011;65489;52.048;6.090;2023-02-03T01:21:20;1.92;;;0.50;;
76599;SDS011;65489;52.048;6.090;2023-02-03T01:23:48;0.98;;;0.60;;
76599;SDS011;65489;52.048;6.090;2023-02-03T01:26:16;1.48;;;0.60;;
76599;SDS011;65489;52.048;6.090;2023-02-03T01:28:43;2.08;;;0.60;;
76599;SDS011;65489;52.048;6.090;2023-02-03T01:31:14;2.42;;;0.70;;
76599;SDS011;65489;52.048;6.090;2023-02-03T01:33:41;1.15;;;0.60;;
76599;SDS011;65489;52.048;6.090;2023-02-03T01:36:10;1.38;;;0.60;;
76599;SDS011;65489;52.048;6.090;2023-02-03T01:38:36;3.10;;;0.90;;
76599;SDS011;65489;52.048;6.090;2023-02-03T01:41:02;2.88;;;1.00;;
76599;SDS011;65489;52.048;6.090;2023-02-03T01:43:36;2.90;;;0.90;;
76599;SDS011;65489;52.048;6.090;2023-02-03T01:46:06;1.75;;;0.98;;
76599;SDS011;65489;52.048;6.090;2023-02-03T01:48:41;2.03;;;1.13;;
76599;SDS011;65489;52.048;6.090;2023-02-03T01:51:06;3.10;;;1.10;;
76599;SDS011;65489;52.048;6.090;2023-02-03T01:53:32;1.98;;;1.00;;
76599;SDS011;65489;52.048;6.090;2023-02-03T01:55:58;2.38;;;1.23;;
76599;SDS011;65489;52.048;6.090;2023-02-03T01:58:25;3.72;;;1.40;;
76599;SDS011;65489;52.048;6.090;2023-02-03T02:00:54;2.60;;;1.38;;
76599;SDS011;65489;52.048;6.090;2023-02-03T02:03:31;2.85;;;1.40;;
76599;SDS011;65489;52.048;6.090;2023-02-03T02:06:01;2.80;;;1.42;;
76599;SDS011;65489;52.048;6.090;2023-02-03T02:08:29;3.40;;;1.70;;
76599;SDS011;65489;52.048;6.090;2023-02-03T02:10:55;3.17;;;1.60;;
76599;SDS011;65489;52.048;6.090;2023-02-03T02:13:22;4.20;;;1.83;;
76599;SDS011;65489;52.048;6.090;2023-02-03T02:22:03;3.47;;;1.58;;
76599;SDS011;65489;52.048;6.090;2023-02-03T02:24:38;4.50;;;1.77;;
76599;SDS011;65489;52.048;6.090;2023-02-03T02:27:16;3.72;;;1.77;;
76599;SDS011;65489;52.048;6.090;2023-02-03T02:38:37;4.03;;;1.63;;
76599;SDS011;65489;52.048;6.090;2023-02-03T02:41:26;4.18;;;1.95;;
76599;SDS011;65489;52.048;6.090;2023-02-03T02:43:57;4.07;;;2.00;;
76599;SDS011;65489;52.048;6.090;2023-02-03T02:46:40;3.67;;;2.00;;
76599;SDS011;65489;52.048;6.090;2023-02-03T02:51:54;4.15;;;2.10;;
76599;SDS011;65489;52.048;6.090;2023-02-03T02:54:22;3.83;;;1.80;;
76599;SDS011;65489;52.048;6.090;2023-02-03T02:56:53;4.05;;;1.90;;
76599;SDS011;65489;52.048;6.090;2023-02-03T02:59:22;4.97;;;2.08;;
76599;SDS011;65489;52.048;6.090;2023-02-03T03:01:47;4.10;;;1.90;;
76599;SDS011;65489;52.048;6.090;2023-02-03T03:04:13;4.63;;;2.10;;
76599;SDS011;65489;52.048;6.090;2023-02-03T03:06:45;3.80;;;1.77;;
76599;SDS011;65489;52.048;6.090;2023-02-03T03:09:17;4.72;;;2.17;;
76599;SDS011;65489;52.048;6.090;2023-02-03T03:11:49;3.65;;;2.05;;
76599;SDS011;65489;52.048;6.090;2023-02-03T03:14:17;4.82;;;2.05;;
76599;SDS011;65489;52.048;6.090;2023-02-03T03:16:47;4.32;;;2.28;;
76599;SDS011;65489;52.048;6.090;2023-02-03T03:19:20;4.95;;;2.22;;
76599;SDS011;65489;52.048;6.090;2023-02-03T03:21:50;6.55;;;2.30;;
76599;SDS011;65489;52.048;6.090;2023-02-03T03:24:19;4.25;;;1.95;;
76599;SDS011;65489;52.048;6.090;2023-02-03T03:26:52;4.57;;;2.42;;
76599;SDS011;65489;52.048;6.090;2023-02-03T03:29:30;3.95;;;2.28;;
76599;SDS011;65489;52.048;6.090;2023-02-03T03:31:59;5.03;;;2.33;;
76599;SDS011;65489;52.048;6.090;2023-02-03T03:34:25;5.78;;;2.33;;
76599;SDS011;65489;52.048;6.090;2023-02-03T03:39:33;4.55;;;2.05;;
76599;SDS011;65489;52.048;6.090;2023-02-03T03:42:18;4.95;;;2.30;;
76599;SDS011;65489;52.048;6.090;2023-02-03T03:44:54;4.32;;;2.10;;
76599;SDS011;65489;52.048;6.090;2023-02-03T03:50:04;4.75;;;2.40;;
76599;SDS011;65489;52.048;6.090;2023-02-03T03:52:32;4.45;;;2.28;;
76599;SDS011;65489;52.048;6.090;2023-02-03T03:54:59;5.10;;;2.00;;
76599;SDS011;65489;52.048;6.090;2023-02-03T03:57:36;5.05;;;1.98;;
76599;SDS011;65489;52.048;6.090;2023-02-03T04:00:04;5.25;;;2.40;;
76599;SDS011;65489;52.048;6.090;2023-02-03T04:02:38;4.38;;;2.10;;
76599;SDS011;65489;52.048;6.090;2023-02-03T04:05:04;3.88;;;2.10;;
76599;SDS011;65489;52.048;6.090;2023-02-03T04:07:43;3.53;;;1.92;;
76599;SDS011;65489;52.048;6.090;2023-02-03T04:12:58;3.40;;;1.80;;
76599;SDS011;65489;52.048;6.090;2023-02-03T04:15:23;3.47;;;1.95;;
76599;SDS011;65489;52.048;6.090;2023-02-03T04:17:48;3.58;;;1.92;;
76599;SDS011;65489;52.048;6.090;2023-02-03T04:20:14;4.13;;;2.40;;
76599;SDS011;65489;52.048;6.090;2023-02-03T04:22:40;4.32;;;2.38;;
76599;SDS011;65489;52.048;6.090;2023-02-03T04:25:05;3.88;;;1.83;;
76599;SDS011;65489;52.048;6.090;2023-02-03T04:27:31;4.82;;;2.15;;
76599;SDS011;65489;52.048;6.090;2023-02-03T04:29:56;4.00;;;2.08;;
76599;SDS011;65489;52.048;6.090;2023-02-03T04:32:22;3.60;;;1.88;;
76599;SDS011;65489;52.048;6.090;2023-02-03T04:34:48;4.35;;;2.30;;
76599;SDS011;65489;52.048;6.090;2023-02-03T04:37:13;4.85;;;2.08;;
76599;SDS011;65489;52.048;6.090;2023-02-03T04:39:39;3.80;;;2.17;;
76599;SDS011;65489;52.048;6.090;2023-02-03T04:42:04;4.20;;;1.90;;
76599;SDS011;65489;52.048;6.090;2023-02-03T04:44:30;4.60;;;2.20;;
76599;SDS011;65489;52.048;6.090;2023-02-03T04:46:55;4.65;;;2.30;;
76599;SDS011;65489;52.048;6.090;2023-02-03T04:49:21;4.60;;;2.22;;
76599;SDS011;65489;52.048;6.090;2023-02-03T04:51:49;4.05;;;2.00;;
76599;SDS011;65489;52.048;6.090;2023-02-03T04:54:15;4.35;;;1.80;;
76599;SDS011;65489;52.048;6.090;2023-02-03T04:56:40;3.85;;;1.75;;
76599;SDS011;65489;52.048;6.090;2023-02-03T04:59:06;4.70;;;2.00;;
76599;SDS011;65489;52.048;6.090;2023-02-03T05:01:32;3.67;;;1.95;;
76599;SDS011;65489;52.048;6.090;2023-02-03T05:03:57;4.15;;;1.80;;
76599;SDS011;65489;52.048;6.090;2023-02-03T05:06:23;4.03;;;2.00;;
76599;SDS011;65489;52.048;6.090;2023-02-03T05:08:50;3.55;;;2.25;;
76599;SDS011;65489;52.048;6.090;2023-02-03T05:11:19;3.85;;;1.75;;
76599;SDS011;65489;52.048;6.090;2023-02-03T05:13:47;4.57;;;1.88;;
76599;SDS011;65489;52.048;6.090;2023-02-03T05:16:13;3.72;;;2.10;;
76599;SDS011;65489;52.048;6.090;2023-02-03T05:18:38;3.92;;;1.92;;
76599;SDS011;65489;52.048;6.090;2023-02-03T05:21:04;2.95;;;1.60;;
76599;SDS011;65489;52.048;6.090;2023-02-03T05:23:30;3.65;;;1.70;;
76599;SDS011;65489;52.048;6.090;2023-02-03T05:25:55;3.40;;;1.83;;
76599;SDS011;65489;52.048;6.090;2023-02-03T05:28:20;4.10;;;1.98;;
76599;SDS011;65489;52.048;6.090;2023-02-03T05:30:46;4.07;;;2.00;;
76599;SDS011;65489;52.048;6.090;2023-02-03T05:33:11;3.15;;;1.80;;
76599;SDS011;65489;52.048;6.090;2023-02-03T05:35:37;3.67;;;1.85;;
76599;SDS011;65489;52.048;6.090;2023-02-03T05:38:02;3.63;;;1.77;;
76599;SDS011;65489;52.048;6.090;2023-02-03T05:40:28;3.40;;;1.80;;
76599;SDS011;65489;52.048;6.090;2023-02-03T05:43:12;2.88;;;1.65;;
76599;SDS011;65489;52.048;6.090;2023-02-03T05:45:37;4.57;;;1.92;;
76599;SDS011;65489;52.048;6.090;2023-02-03T05:48:03;3.67;;;1.70;;
76599;SDS011;65489;52.048;6.090;2023-02-03T05:50:29;4.60;;;1.77;;
76599;SDS011;65489;52.048;6.090;2023-02-03T05:53:05;3.78;;;1.50;;
76599;SDS011;65489;52.048;6.090;2023-02-03T05:55:31;5.05;;;1.88;;
76599;SDS011;65489;52.048;6.090;2023-02-03T05:57:57;3.42;;;1.80;;
76599;SDS011;65489;52.048;6.090;2023-02-03T06:00:25;3.47;;;1.42;;
76599;SDS011;65489;52.048;6.090;2023-02-03T06:02:51;5.15;;;1.75;;
76599;SDS011;65489;52.048;6.090;2023-02-03T06:05:17;3.58;;;1.80;;
76599;SDS011;65489;52.048;6.090;2023-02-03T06:07:43;3.38;;;1.65;;
76599;SDS011;65489;52.048;6.090;2023-02-03T06:10:08;3.80;;;1.60;;
76599;SDS011;65489;52.048;6.090;2023-02-03T06:12:34;3.15;;;1.40;;
76599;SDS011;65489;52.048;6.090;2023-02-03T06:14:59;3.72;;;1.77;;
76599;SDS011;65489;52.048;6.090;2023-02-03T06:17:25;2.45;;;1.52;;
76599;SDS011;65489;52.048;6.090;2023-02-03T06:19:50;5.57;;;1.77;;
76599;SDS011;65489;52.048;6.090;2023-02-03T06:22:16;3.65;;;1.80;;
76599;SDS011;65489;52.048;6.090;2023-02-03T06:24:41;4.65;;;1.80;;
76599;SDS011;65489;52.048;6.090;2023-02-03T06:27:08;2.80;;;1.70;;
76599;SDS011;65489;52.048;6.090;2023-02-03T06:29:34;3.47;;;1.60;;
76599;SDS011;65489;52.048;6.090;2023-02-03T06:31:59;3.08;;;1.40;;
76599;SDS011;65489;52.048;6.090;2023-02-03T06:34:25;3.58;;;1.70;;
76599;SDS011;65489;52.048;6.090;2023-02-03T06:36:50;4.03;;;1.85;;
76599;SDS011;65489;52.048;6.090;2023-02-03T06:39:16;2.83;;;1.60;;
76599;SDS011;65489;52.048;6.090;2023-02-03T06:41:41;3.47;;;1.67;;
76599;SDS011;65489;52.048;6.090;2023-02-03T06:44:07;3.83;;;1.85;;
76599;SDS011;65489;52.048;6.090;2023-02-03T06:46:32;3.17;;;1.60;;
76599;SDS011;65489;52.048;6.090;2023-02-03T06:48:58;2.90;;;1.60;;
76599;SDS011;65489;52.048;6.090;2023-02-03T06:51:23;3.13;;;1.70;;
76599;SDS011;65489;52.048;6.090;2023-02-03T06:53:49;2.30;;;1.40;;
76599;SDS011;65489;52.048;6.090;2023-02-03T06:56:14;2.58;;;1.30;;
76599;SDS011;65489;52.048;6.090;2023-02-03T06:58:40;4.75;;;1.83;;
76599;SDS011;65489;52.048;6.090;2023-02-03T07:01:05;2.90;;;1.40;;
76599;SDS011;65489;52.048;6.090;2023-02-03T07:03:31;3.88;;;1.60;;
76599;SDS011;65489;52.048;6.090;2023-02-03T07:05:56;2.78;;;1.30;;
76599;SDS011;65489;52.048;6.090;2023-02-03T07:08:22;2.95;;;1.23;;
76599;SDS011;65489;52.048;6.090;2023-02-03T07:10:51;2.30;;;1.40;;
76599;SDS011;65489;52.048;6.090;2023-02-03T07:13:17;3.92;;;1.50;;
76599;SDS011;65489;52.048;6.090;2023-02-03T07:15:43;4.13;;;1.25;;
76599;SDS011;65489;52.048;6.090;2023-02-03T07:18:08;2.75;;;1.42;;
76599;SDS011;65489;52.048;6.090;2023-02-03T07:20:34;3.88;;;1.65;;
76599;SDS011;65489;52.048;6.090;2023-02-03T07:22:59;3.42;;;1.35;;
76599;SDS011;65489;52.048;6.090;2023-02-03T07:25:25;2.33;;;1.25;;
76599;SDS011;65489;52.048;6.090;2023-02-03T07:27:50;2.33;;;1.13;;
76599;SDS011;65489;52.048;6.090;2023-02-03T07:30:16;3.90;;;2.15;;
76599;SDS011;65489;52.048;6.090;2023-02-03T07:32:45;3.30;;;1.55;;
76599;SDS011;65489;52.048;6.090;2023-02-03T07:35:11;3.65;;;1.80;;
76599;SDS011;65489;52.048;6.090;2023-02-03T07:37:37;2.78;;;1.50;;
76599;SDS011;65489;52.048;6.090;2023-02-03T07:40:02;3.63;;;1.42;;
76599;SDS011;65489;52.048;6.090;2023-02-03T07:42:28;3.88;;;1.52;;
76599;SDS011;65489;52.048;6.090;2023-02-03T07:44:54;2.78;;;1.50;;
76599;SDS011;65489;52.048;6.090;2023-02-03T07:47:19;2.92;;;1.65;;
76599;SDS011;65489;52.048;6.090;2023-02-03T07:49:44;2.35;;;1.20;;
76599;SDS011;65489;52.048;6.090;2023-02-03T07:52:10;2.38;;;1.38;;
76599;SDS011;65489;52.048;6.090;2023-02-03T07:54:35;3.50;;;1.58;;
76599;SDS011;65489;52.048;6.090;2023-02-03T07:57:01;2.78;;;1.27;;
76599;SDS011;65489;52.048;6.090;2023-02-03T07:59:26;1.73;;;1.23;;
76599;SDS011;65489;52.048;6.090;2023-02-03T08:01:52;2.88;;;1.30;;
76599;SDS011;65489;52.048;6.090;2023-02-03T08:04:20;2.33;;;1.08;;
76599;SDS011;65489;52.048;6.090;2023-02-03T08:06:46;2.97;;;1.10;;
76599;SDS011;65489;52.048;6.090;2023-02-03T08:09:12;2.10;;;1.20;;
76599;SDS011;65489;52.048;6.090;2023-02-03T08:11:37;2.05;;;1.00;;
76599;SDS011;65489;52.048;6.090;2023-02-03T08:14:02;1.67;;;1.10;;
76599;SDS011;65489;52.048;6.090;2023-02-03T08:16:28;2.90;;;1.30;;
76599;SDS011;65489;52.048;6.090;2023-02-03T08:18:53;2.65;;;1.45;;
76599;SDS011;65489;52.048;6.090;2023-02-03T08:21:19;2.97;;;1.10;;
76599;SDS011;65489;52.048;6.090;2023-02-03T08:23:44;1.90;;;1.33;;
76599;SDS011;65489;52.048;6.090;2023-02-03T08:26:10;2.75;;;1.40;;
76599;SDS011;65489;52.048;6.090;2023-02-03T08:28:35;3.15;;;1.42;;
76599;SDS011;65489;52.048;6.090;2023-02-03T08:31:01;2.15;;;1.15;;
76599;SDS011;65489;52.048;6.090;2023-02-03T08:33:26;2.13;;;1.30;;
76599;SDS011;65489;52.048;6.090;2023-02-03T08:35:52;2.45;;;1.30;;
76599;SDS011;65489;52.048;6.090;2023-02-03T08:38:18;2.15;;;1.23;;
76599;SDS011;65489;52.048;6.090;2023-02-03T08:40:45;2.53;;;1.20;;
76599;SDS011;65489;52.048;6.090;2023-02-03T08:43:11;2.13;;;1.10;;
76599;SDS011;65489;52.048;6.090;2023-02-03T08:45:38;2.63;;;1.10;;
76599;SDS011;65489;52.048;6.090;2023-02-03T08:48:04;2.40;;;1.15;;
76599;SDS011;65489;52.048;6.090;2023-02-03T08:50:29;2.65;;;1.30;;
76599;SDS011;65489;52.048;6.090;2023-02-03T08:52:55;2.17;;;1.13;;
76599;SDS011;65489;52.048;6.090;2023-02-03T08:55:20;2.83;;;1.30;;
76599;SDS011;65489;52.048;6.090;2023-02-03T08:57:46;2.08;;;1.25;;
76599;SDS011;65489;52.048;6.090;2023-02-03T09:00:11;2.65;;;1.10;;
76599;SDS011;65489;52.048;6.090;2023-02-03T09:02:37;2.75;;;1.20;;
76599;SDS011;65489;52.048;6.090;2023-02-03T09:05:03;1.52;;;0.90;;
76599;SDS011;65489;52.048;6.090;2023-02-03T09:07:28;1.98;;;1.00;;
76599;SDS011;65489;52.048;6.090;2023-02-03T09:09:54;2.33;;;1.20;;
76599;SDS011;65489;52.048;6.090;2023-02-03T09:12:19;2.30;;;0.98;;
76599;SDS011;65489;52.048;6.090;2023-02-03T09:14:45;2.42;;;1.08;;
76599;SDS011;65489;52.048;6.090;2023-02-03T09:17:10;3.53;;;1.30;;
76599;SDS011;65489;52.048;6.090;2023-02-03T09:19:36;1.45;;;0.77;;
76599;SDS011;65489;52.048;6.090;2023-02-03T09:22:02;1.25;;;0.77;;
76599;SDS011;65489;52.048;6.090;2023-02-03T09:24:27;1.48;;;0.90;;
76599;SDS011;65489;52.048;6.090;2023-02-03T09:26:53;3.20;;;1.00;;
76599;SDS011;65489;52.048;6.090;2023-02-03T09:29:19;1.48;;;0.88;;
76599;SDS011;65489;52.048;6.090;2023-02-03T09:31:47;1.75;;;0.90;;
76599;SDS011;65489;52.048;6.090;2023-02-03T09:34:13;2.35;;;1.00;;
76599;SDS011;65489;52.048;6.090;2023-02-03T09:36:39;1.92;;;0.85;;
76599;SDS011;65489;52.048;6.090;2023-02-03T09:39:04;1.80;;;0.90;;
76599;SDS011;65489;52.048;6.090;2023-02-03T09:44:46;1.30;;;0.88;;
76599;SDS011;65489;52.048;6.090;2023-02-03T09:47:19;3.25;;;1.00;;
76599;SDS011;65489;52.048;6.090;2023-02-03T09:49:49;1.55;;;0.80;;
76599;SDS011;65489;52.048;6.090;2023-02-03T09:52:20;2.03;;;0.90;;
76599;SDS011;65489;52.048;6.090;2023-02-03T09:58:09;1.85;;;0.90;;
76599;SDS011;65489;52.048;6.090;2023-02-03T10:00:29;1.80;;;1.10;;
76599;SDS011;65489;52.048;6.090;2023-02-03T10:03:05;1.73;;;0.75;;
76599;SDS011;65489;52.048;6.090;2023-02-03T10:05:45;2.85;;;0.82;;
76599;SDS011;65489;52.048;6.090;2023-02-03T10:14:12;1.17;;;0.80;;
76599;SDS011;65489;52.048;6.090;2023-02-03T10:19:26;2.33;;;0.90;;
76599;SDS011;65489;52.048;6.090;2023-02-03T10:22:00;1.27;;;0.77;;
76599;SDS011;65489;52.048;6.090;2023-02-03T10:24:32;2.33;;;1.02;;
76599;SDS011;65489;52.048;6.090;2023-02-03T10:27:03;1.40;;;0.73;;
76599;SDS011;65489;52.048;6.090;2023-02-03T10:29:36;2.05;;;0.80;;
76599;SDS011;65489;52.048;6.090;2023-02-03T10:32:07;1.50;;;1.17;;
76599;SDS011;65489;52.048;6.090;2023-02-03T10:34:33;1.42;;;0.70;;
76599;SDS011;65489;52.048;6.090;2023-02-03T10:39:58;2.67;;;0.65;;
76599;SDS011;65489;52.048;6.090;2023-02-03T10:42:25;1.67;;;0.60;;
76599;SDS011;65489;52.048;6.090;2023-02-03T10:45:12;2.50;;;1.00;;
76599;SDS011;65489;52.048;6.090;2023-02-03T10:47:38;1.70;;;0.70;;
76599;SDS011;65489;52.048;6.090;2023-02-03T10:50:13;2.05;;;0.80;;
76599;SDS011;65489;52.048;6.090;2023-02-03T10:52:43;2.08;;;0.70;;
76599;SDS011;65489;52.048;6.090;2023-02-03T10:57:49;1.98;;;0.80;;
76599;SDS011;65489;52.048;6.090;2023-02-03T11:02:41;1.15;;;0.63;;
76599;SDS011;65489;52.048;6.090;2023-02-03T11:07:35;1.63;;;0.80;;
76599;SDS011;65489;52.048;6.090;2023-02-03T11:10:00;2.92;;;0.77;;
76599;SDS011;65489;52.048;6.090;2023-02-03T11:12:26;1.88;;;0.80;;
76599;SDS011;65489;52.048;6.090;2023-02-03T11:14:52;2.55;;;1.05;;
76599;SDS011;65489;52.048;6.090;2023-02-03T11:17:18;2.10;;;1.15;;
76599;SDS011;65489;52.048;6.090;2023-02-03T11:19:49;2.78;;;1.17;;
76599;SDS011;65489;52.048;6.090;2023-02-03T11:22:26;4.43;;;1.25;;
76599;SDS011;65489;52.048;6.090;2023-02-03T11:24:55;2.80;;;0.90;;
76599;SDS011;65489;52.048;6.090;2023-02-03T11:27:22;4.05;;;0.90;;
76599;SDS011;65489;52.048;6.090;2023-02-03T11:29:50;2.78;;;1.30;;
76599;SDS011;65489;52.048;6.090;2023-02-03T11:32:20;2.67;;;1.10;;
76599;SDS011;65489;52.048;6.090;2023-02-03T11:34:57;2.38;;;1.00;;
76599;SDS011;65489;52.048;6.090;2023-02-03T11:37:26;2.45;;;0.85;;
76599;SDS011;65489;52.048;6.090;2023-02-03T11:42:36;5.88;;;1.17;;
76599;SDS011;65489;52.048;6.090;2023-02-03T12:02:34;2.28;;;0.88;;
76599;SDS011;65489;52.048;6.090;2023-02-03T12:04:49;2.42;;;0.73;;
76599;SDS011;65489;52.048;6.090;2023-02-03T12:18:14;2.10;;;0.98;;
76599;SDS011;65489;52.048;6.090;2023-02-03T12:26:37;2.25;;;0.82;;
76599;SDS011;65489;52.048;6.090;2023-02-03T12:29:12;4.70;;;1.00;;
76599;SDS011;65489;52.048;6.090;2023-02-03T12:32:08;2.17;;;0.95;;
76599;SDS011;65489;52.048;6.090;2023-02-03T12:34:46;1.88;;;0.80;;
76599;SDS011;65489;52.048;6.090;2023-02-03T12:37:15;2.53;;;0.90;;
76599;SDS011;65489;52.048;6.090;2023-02-03T12:39:53;2.72;;;0.90;;
76599;SDS011;65489;52.048;6.090;2023-02-03T12:42:29;2.20;;;0.85;;
76599;SDS011;65489;52.048;6.090;2023-02-03T12:45:03;2.95;;;0.70;;
76599;SDS011;65489;52.048;6.090;2023-02-03T12:47:41;2.65;;;0.80;;
76599;SDS011;65489;52.048;6.090;2023-02-03T12:50:13;2.03;;;1.10;;
76599;SDS011;65489;52.048;6.090;2023-02-03T12:52:52;2.08;;;1.00;;
76599;SDS011;65489;52.048;6.090;2023-02-03T12:55:35;2.28;;;1.08;;
76599;SDS011;65489;52.048;6.090;2023-02-03T12:58:08;1.67;;;0.65;;
76599;SDS011;65489;52.048;6.090;2023-02-03T13:06:13;3.47;;;1.05;;
76599;SDS011;65489;52.048;6.090;2023-02-03T13:08:50;4.50;;;1.30;;
76599;SDS011;65489;52.048;6.090;2023-02-03T13:11:36;3.03;;;1.00;;
76599;SDS011;65489;52.048;6.090;2023-02-03T13:21:16;2.15;;;1.00;;
76599;SDS011;65489;52.048;6.090;2023-02-03T13:23:56;2.90;;;0.80;;
76599;SDS011;65489;52.048;6.090;2023-02-03T13:42:24;3.00;;;0.80;;
76599;SDS011;65489;52.048;6.090;2023-02-03T13:45:26;3.15;;;0.95;;
76599;SDS011;65489;52.048;6.090;2023-02-03T13:50:34;3.33;;;0.80;;
76599;SDS011;65489;52.048;6.090;2023-02-03T13:55:37;2.05;;;0.80;;
76599;SDS011;65489;52.048;6.090;2023-02-03T13:58:05;2.40;;;0.80;;
76599;SDS011;65489;52.048;6.090;2023-02-03T14:05:57;2.35;;;0.90;;
76599;SDS011;65489;52.048;6.090;2023-02-03T14:16:33;2.15;;;0.88;;
76599;SDS011;65489;52.048;6.090;2023-02-03T14:19:03;2.03;;;0.75;;
76599;SDS011;65489;52.048;6.090;2023-02-03T14:21:38;2.92;;;1.15;;
76599;SDS011;65489;52.048;6.090;2023-02-03T14:24:11;2.97;;;1.02;;
76599;SDS011;65489;52.048;6.090;2023-02-03T14:26:58;2.50;;;0.80;;
76599;SDS011;65489;52.048;6.090;2023-02-03T14:29:26;2.70;;;0.90;;
76599;SDS011;65489;52.048;6.090;2023-02-03T14:34:40;2.45;;;1.00;;
76599;SDS011;65489;52.048;6.090;2023-02-03T14:37:16;3.08;;;0.80;;
76599;SDS011;65489;52.048;6.090;2023-02-03T14:59:20;3.53;;;0.90;;
76599;SDS011;65489;52.048;6.090;2023-02-03T15:06:44;3.80;;;1.00;;
76599;SDS011;65489;52.048;6.090;2023-02-03T15:09:19;1.92;;;0.90;;
76599;SDS011;65489;52.048;6.090;2023-02-03T15:11:52;2.08;;;0.80;;
76599;SDS011;65489;52.048;6.090;2023-02-03T15:14:25;2.78;;;0.90;;
76599;SDS011;65489;52.048;6.090;2023-02-03T15:17:12;3.28;;;0.90;;
76599;SDS011;65489;52.048;6.090;2023-02-03T15:19:48;2.20;;;0.75;;
76599;SDS011;65489;52.048;6.090;2023-02-03T15:22:36;3.55;;;1.08;;
76599;SDS011;65489;52.048;6.090;2023-02-03T15:25:10;2.55;;;0.90;;
76599;SDS011;65489;52.048;6.090;2023-02-03T15:27:51;3.25;;;0.73;;
76599;SDS011;65489;52.048;6.090;2023-02-03T15:30:21;3.63;;;0.82;;
76599;SDS011;65489;52.048;6.090;2023-02-03T15:35:29;2.05;;;0.80;;
76599;SDS011;65489;52.048;6.090;2023-02-03T15:38:03;4.18;;;1.00;;
76599;SDS011;65489;52.048;6.090;2023-02-03T15:40:42;2.00;;;0.90;;
76599;SDS011;65489;52.048;6.090;2023-02-03T15:46:10;2.55;;;0.90;;
76599;SDS011;65489;52.048;6.090;2023-02-03T15:48:50;3.63;;;1.00;;
76599;SDS011;65489;52.048;6.090;2023-02-03T15:51:32;4.30;;;0.90;;
76599;SDS011;65489;52.048;6.090;2023-02-03T15:54:06;5.00;;;0.95;;
76599;SDS011;65489;52.048;6.090;2023-02-03T15:56:49;2.13;;;0.90;;
76599;SDS011;65489;52.048;6.090;2023-02-03T15:59:34;2.40;;;0.75;;
76599;SDS011;65489;52.048;6.090;2023-02-03T16:02:17;3.85;;;1.10;;
76599;SDS011;65489;52.048;6.090;2023-02-03T16:04:47;2.85;;;0.80;;
76599;SDS011;65489;52.048;6.090;2023-02-03T16:07:18;4.70;;;1.00;;
76599;SDS011;65489;52.048;6.090;2023-02-03T16:09:52;2.65;;;0.93;;
76599;SDS011;65489;52.048;6.090;2023-02-03T16:12:22;2.35;;;0.80;;
76599;SDS011;65489;52.048;6.090;2023-02-03T16:14:49;2.33;;;0.90;;
76599;SDS011;65489;52.048;6.090;2023-02-03T16:17:34;2.95;;;0.80;;
76599;SDS011;65489;52.048;6.090;2023-02-03T16:22:45;2.53;;;0.63;;
76599;SDS011;65489;52.048;6.090;2023-02-03T16:25:33;2.90;;;0.80;;
76599;SDS011;65489;52.048;6.090;2023-02-03T16:30:52;1.85;;;0.85;;
76599;SDS011;65489;52.048;6.090;2023-02-03T16:33:37;2.50;;;0.82;;
76599;SDS011;65489;52.048;6.090;2023-02-03T16:36:21;2.75;;;0.70;;
76599;SDS011;65489;52.048;6.090;2023-02-03T16:39:11;2.75;;;0.80;;
76599;SDS011;65489;52.048;6.090;2023-02-03T16:41:59;3.60;;;0.80;;
76599;SDS011;65489;52.048;6.090;2023-02-03T16:44:46;2.83;;;0.98;;
76599;SDS011;65489;52.048;6.090;2023-02-03T16:47:36;2.33;;;0.70;;
76599;SDS011;65489;52.048;6.090;2023-02-03T16:50:42;2.38;;;0.90;;
76599;SDS011;65489;52.048;6.090;2023-02-03T16:53:16;2.28;;;0.95;;
76599;SDS011;65489;52.048;6.090;2023-02-03T16:55:51;2.90;;;0.98;;
76599;SDS011;65489;52.048;6.090;2023-02-03T16:58:18;3.33;;;0.80;;
76599;SDS011;65489;52.048;6.090;2023-02-03T17:00:53;2.95;;;0.80;;
76599;SDS011;65489;52.048;6.090;2023-02-03T17:03:22;2.72;;;0.80;;
76599;SDS011;65489;52.048;6.090;2023-02-03T17:06:00;3.47;;;0.95;;
76599;SDS011;65489;52.048;6.090;2023-02-03T17:08:38;3.00;;;0.90;;
76599;SDS011;65489;52.048;6.090;2023-02-03T17:11:09;3.05;;;0.90;;
76599;SDS011;65489;52.048;6.090;2023-02-03T17:13:37;2.22;;;0.80;;
76599;SDS011;65489;52.048;6.090;2023-02-03T17:19:01;2.85;;;1.10;;
76599;SDS011;65489;52.048;6.090;2023-02-03T17:21:34;3.38;;;1.30;;
76599;SDS011;65489;52.048;6.090;2023-02-03T17:24:04;3.33;;;1.13;;
76599;SDS011;65489;52.048;6.090;2023-02-03T17:26:30;3.33;;;1.08;;
76599;SDS011;65489;52.048;6.090;2023-02-03T17:29:00;2.78;;;1.02;;
76599;SDS011;65489;52.048;6.090;2023-02-03T17:31:35;4.22;;;1.05;;
76599;SDS011;65489;52.048;6.090;2023-02-03T17:34:03;4.03;;;0.95;;
76599;SDS011;65489;52.048;6.090;2023-02-03T17:36:31;2.42;;;0.90;;
76599;SDS011;65489;52.048;6.090;2023-02-03T17:39:05;4.05;;;0.88;;
76599;SDS011;65489;52.048;6.090;2023-02-03T17:41:41;4.95;;;1.02;;
76599;SDS011;65489;52.048;6.090;2023-02-03T17:44:10;4.80;;;1.05;;
76599;SDS011;65489;52.048;6.090;2023-02-03T17:46:38;2.42;;;0.90;;
76599;SDS011;65489;52.048;6.090;2023-02-03T17:49:03;4.38;;;1.20;;
76599;SDS011;65489;52.048;6.090;2023-02-03T17:51:37;2.15;;;0.90;;
76599;SDS011;65489;52.048;6.090;2023-02-03T17:54:03;3.37;;;1.13;;
76599;SDS011;65489;52.048;6.090;2023-02-03T17:56:30;3.55;;;1.20;;
76599;SDS011;65489;52.048;6.090;2023-02-03T17:58:58;3.13;;;1.02;;